sensor_id;sensor_type;location;lat;lon;timestamp;pressure;altitude;pressure_sealevel;temperature;humidity
40315;BME280;26021;45.640;11.302;2023-10-31T00:00:20;97434.00;;;15.40;100.00
40315;BME280;26021;45.640;11.302;2023-10-31T00:02:46;97431.75;;;15.20;100.00
40315;BME280;26021;45.640;11.302;2023-10-31T00:05:11;97437.81;;;15.27;100.00
40315;BME280;26021;45.640;11.302;2023-10-31T00:07:37;97435.00;;;15.22;100.00
40315;BME280;26021;45.640;11.302;2023-10-31T00:10:02;97431.31;;;15.12;100.00
40315;BME280;26021;45.640;11.302;2023-10-31T00:12:28;97405.19;;;15.12;100.00
40315;BME280;26021;45.640;11.302;2023-10-31T00:14:53;97424.56;;;15.26;100.00
40315;BME280;26021;45.640;11.302;2023-10-31T00:17:19;97434.03;;;15.29;100.00
40315;BME280;26021;45.640;11.302;2023-10-31T00:19:44;97440.72;;;15.26;100.00
40315;BME280;26021;45.640;11.302;2023-10-31T00:22:10;97426.34;;;15.20;100.00
40315;BME280;26021;45.640;11.302;2023-10-31T00:24:35;97411.50;;;15.18;100.00
40315;BME280;26021;45.640;11.302;2023-10-31T00:27:01;97432.78;;;14.91;100.00
40315;BME280;26021;45.640;11.302;2023-10-31T00:29:26;97432.44;;;14.87;100.00
40315;BME280;26021;45.640;11.302;2023-10-31T00:31:52;97433.25;;;14.88;100.00
40315;BME280;26021;45.640;11.302;2023-10-31T00:34:17;97431.03;;;14.85;100.00
40315;BME280;26021;45.640;11.302;2023-10-31T00:36:43;97424.13;;;14.89;100.00
40315;BME280;26021;45.640;11.302;2023-10-31T00:39:08;97391.91;;;14.54;100.00
40315;BME280;26021;45.640;11.302;2023-10-31T00:41:33;97411.91;;;14.58;100.00
40315;BME280;26021;45.640;11.302;2023-10-31T00:43:59;97430.22;;;14.73;100.00
40315;BME280;26021;45.640;11.302;2023-10-31T00:46:24;97423.34;;;14.65;100.00
40315;BME280;26021;45.640;11.302;2023-10-31T00:48:50;97418.22;;;14.52;100.00
40315;BME280;26021;45.640;11.302;2023-10-31T00:51:15;97413.31;;;14.60;100.00
40315;BME280;26021;45.640;11.302;2023-10-31T00:53:41;97419.53;;;14.49;100.00
40315;BME280;26021;45.640;11.302;2023-10-31T00:56:07;97410.03;;;14.35;100.00
40315;BME280;26021;45.640;11.302;2023-10-31T00:58:32;97418.47;;;14.50;100.00
40315;BME280;26021;45.640;11.302;2023-10-31T01:00:58;97419.41;;;14.32;100.00
40315;BME280;26021;45.640;11.302;2023-10-31T01:03:23;97359.91;;;13.94;100.00
40315;BME280;26021;45.640;11.302;2023-10-31T01:05:49;97425.69;;;14.38;100.00
40315;BME280;26021;45.640;11.302;2023-10-31T01:08:15;97300.31;;;13.62;100.00
40315;BME280;26021;45.640;11.302;2023-10-31T01:10:40;97353.34;;;13.78;100.00
40315;BME280;26021;45.640;11.302;2023-10-31T01:13:05;97426.88;;;14.30;100.00
40315;BME280;26021;45.640;11.302;2023-10-31T01:15:31;97425.03;;;14.43;100.00
40315;BME280;26021;45.640;11.302;2023-10-31T01:17:57;97433.44;;;14.35;100.00
40315;BME280;26021;45.640;11.302;2023-10-31T01:20:22;97438.56;;;14.24;100.00
40315;BME280;26021;45.640;11.302;2023-10-31T01:22:48;97277.63;;;13.34;100.00
40315;BME280;26021;45.640;11.302;2023-10-31T01:25:13;97447.81;;;14.40;100.00
40315;BME280;26021;45.640;11.302;2023-10-31T01:27:39;97431.34;;;14.48;100.00
40315;BME280;26021;45.640;11.302;2023-10-31T01:30:05;97437.78;;;14.47;100.00
40315;BME280;26021;45.640;11.302;2023-10-31T01:32:30;97426.53;;;14.50;100.00
40315;BME280;26021;45.640;11.302;2023-10-31T01:34:56;97418.00;;;14.53;100.00
40315;BME280;26021;45.640;11.302;2023-10-31T01:37:22;97423.03;;;14.50;100.00
40315;BME280;26021;45.640;11.302;2023-10-31T01:39:47;97425.13;;;14.36;100.00
40315;BME280;26021;45.640;11.302;2023-10-31T01:42:14;97407.56;;;14.10;100.00
40315;BME280;26021;45.640;11.302;2023-10-31T01:44:40;97460.91;;;14.37;100.00
40315;BME280;26021;45.640;11.302;2023-10-31T01:47:06;97466.97;;;14.32;100.00
40315;BME280;26021;45.640;11.302;2023-10-31T01:49:31;97423.16;;;14.20;100.00
40315;BME280;26021;45.640;11.302;2023-10-31T01:51:59;97463.94;;;14.40;100.00
40315;BME280;26021;45.640;11.302;2023-10-31T01:54:25;97466.31;;;14.48;100.00
40315;BME280;26021;45.640;11.302;2023-10-31T01:56:51;97459.28;;;14.47;100.00
40315;BME280;26021;45.640;11.302;2023-10-31T01:59:21;97415.19;;;14.25;100.00
40315;BME280;26021;45.640;11.302;2023-10-31T02:01:48;97447.25;;;14.50;100.00
40315;BME280;26021;45.640;11.302;2023-10-31T02:04:14;97441.50;;;14.58;100.00
40315;BME280;26021;45.640;11.302;2023-10-31T02:06:40;97448.75;;;14.46;100.00
40315;BME280;26021;45.640;11.302;2023-10-31T02:09:06;97452.72;;;14.31;100.00
40315;BME280;26021;45.640;11.302;2023-10-31T02:11:32;97446.75;;;14.29;100.00
40315;BME280;26021;45.640;11.302;2023-10-31T02:13:57;97446.06;;;14.34;100.00
40315;BME280;26021;45.640;11.302;2023-10-31T02:16:22;97453.09;;;14.47;100.00
40315;BME280;26021;45.640;11.302;2023-10-31T02:18:48;97443.72;;;14.49;100.00
40315;BME280;26021;45.640;11.302;2023-10-31T02:21:14;97449.91;;;14.38;100.00
40315;BME280;26021;45.640;11.302;2023-10-31T02:23:40;97452.03;;;14.48;100.00
40315;BME280;26021;45.640;11.302;2023-10-31T02:26:05;97452.25;;;14.58;100.00
40315;BME280;26021;45.640;11.302;2023-10-31T02:28:31;97422.44;;;14.48;100.00
40315;BME280;26021;45.640;11.302;2023-10-31T02:30:56;97436.00;;;14.29;100.00
40315;BME280;26021;45.640;11.302;2023-10-31T02:33:22;97304.06;;;13.49;100.00
40315;BME280;26021;45.640;11.302;2023-10-31T02:35:47;97423.59;;;14.40;100.00
40315;BME280;26021;45.640;11.302;2023-10-31T02:38:13;97436.13;;;14.46;100.00
40315;BME280;26021;45.640;11.302;2023-10-31T02:40:38;97434.25;;;14.35;100.00
40315;BME280;26021;45.640;11.302;2023-10-31T02:43:04;97442.91;;;14.37;100.00
40315;BME280;26021;45.640;11.302;2023-10-31T02:45:29;97441.16;;;14.43;100.00
40315;BME280;26021;45.640;11.302;2023-10-31T02:47:55;97429.09;;;14.22;100.00
40315;BME280;26021;45.640;11.302;2023-10-31T02:50:21;97439.16;;;14.15;100.00
40315;BME280;26021;45.640;11.302;2023-10-31T02:52:46;97451.75;;;14.03;100.00
40315;BME280;26021;45.640;11.302;2023-10-31T02:55:12;97451.63;;;14.09;100.00
40315;BME280;26021;45.640;11.302;2023-10-31T02:57:37;97455.28;;;14.26;100.00
40315;BME280;26021;45.640;11.302;2023-10-31T03:00:03;97458.81;;;14.27;100.00
40315;BME280;26021;45.640;11.302;2023-10-31T03:02:29;97458.34;;;14.30;100.00
40315;BME280;26021;45.640;11.302;2023-10-31T03:04:55;97457.97;;;14.26;100.00
40315;BME280;26021;45.640;11.302;2023-10-31T03:07:21;97450.97;;;14.14;100.00
40315;BME280;26021;45.640;11.302;2023-10-31T03:09:46;97454.59;;;14.19;100.00
40315;BME280;26021;45.640;11.302;2023-10-31T03:12:11;97457.97;;;14.26;100.00
40315;BME280;26021;45.640;11.302;2023-10-31T03:14:37;97460.91;;;14.37;100.00
40315;BME280;26021;45.640;11.302;2023-10-31T03:17:02;97461.84;;;14.30;100.00
40315;BME280;26021;45.640;11.302;2023-10-31T03:19:28;97448.97;;;14.21;100.00
40315;BME280;26021;45.640;11.302;2023-10-31T03:21:53;97440.44;;;14.24;100.00
40315;BME280;26021;45.640;11.302;2023-10-31T03:24:19;97420.56;;;14.13;100.00
40315;BME280;26021;45.640;11.302;2023-10-31T03:26:44;97404.44;;;14.13;100.00
40315;BME280;26021;45.640;11.302;2023-10-31T03:29:10;97380.81;;;14.04;100.00
40315;BME280;26021;45.640;11.302;2023-10-31T03:31:35;97411.22;;;14.27;100.00
40315;BME280;26021;45.640;11.302;2023-10-31T03:34:00;97334.31;;;13.91;100.00
40315;BME280;26021;45.640;11.302;2023-10-31T03:36:26;97390.03;;;14.31;100.00
40315;BME280;26021;45.640;11.302;2023-10-31T03:38:51;97357.56;;;13.97;100.00
40315;BME280;26021;45.640;11.302;2023-10-31T03:41:17;97253.84;;;13.38;100.00
40315;BME280;26021;45.640;11.302;2023-10-31T03:43:42;97391.81;;;14.25;100.00
40315;BME280;26021;45.640;11.302;2023-10-31T03:46:08;97398.59;;;14.28;100.00
40315;BME280;26021;45.640;11.302;2023-10-31T03:48:33;97384.66;;;14.31;100.00
40315;BME280;26021;45.640;11.302;2023-10-31T03:50:59;97376.03;;;14.29;100.00
40315;BME280;26021;45.640;11.302;2023-10-31T03:53:24;97381.53;;;14.22;100.00
40315;BME280;26021;45.640;11.302;2023-10-31T03:55:50;97378.69;;;14.06;100.00
40315;BME280;26021;45.640;11.302;2023-10-31T03:58:15;97372.53;;;14.17;100.00
40315;BME280;26021;45.640;11.302;2023-10-31T04:00:41;97373.34;;;14.17;100.00
40315;BME280;26021;45.640;11.302;2023-10-31T04:03:07;97289.34;;;13.63;100.00
40315;BME280;26021;45.640;11.302;2023-10-31T04:05:33;97383.97;;;14.24;100.00
40315;BME280;26021;45.640;11.302;2023-10-31T04:07:58;97347.38;;;14.11;100.00
40315;BME280;26021;45.640;11.302;2023-10-31T04:10:24;97342.69;;;14.07;100.00
40315;BME280;26021;45.640;11.302;2023-10-31T04:12:50;97381.19;;;14.19;100.00
40315;BME280;26021;45.640;11.302;2023-10-31T04:15:15;97304.50;;;14.05;100.00
40315;BME280;26021;45.640;11.302;2023-10-31T04:17:41;97356.25;;;14.35;100.00
40315;BME280;26021;45.640;11.302;2023-10-31T04:20:07;97352.31;;;14.14;100.00
40315;BME280;26021;45.640;11.302;2023-10-31T04:22:33;97366.91;;;14.30;100.00
40315;BME280;26021;45.640;11.302;2023-10-31T04:24:58;97360.00;;;14.22;100.00
40315;BME280;26021;45.640;11.302;2023-10-31T04:27:24;97356.03;;;14.02;100.00
40315;BME280;26021;45.640;11.302;2023-10-31T04:29:49;97354.63;;;13.99;100.00
40315;BME280;26021;45.640;11.302;2023-10-31T04:32:14;97356.25;;;14.00;100.00
40315;BME280;26021;45.640;11.302;2023-10-31T04:34:40;97345.16;;;14.08;100.00
40315;BME280;26021;45.640;11.302;2023-10-31T04:37:05;97352.75;;;14.11;100.00
40315;BME280;26021;45.640;11.302;2023-10-31T04:39:31;97332.66;;;14.02;100.00
40315;BME280;26021;45.640;11.302;2023-10-31T04:41:57;97305.44;;;13.75;100.00
40315;BME280;26021;45.640;11.302;2023-10-31T04:44:22;97361.16;;;14.03;100.00
40315;BME280;26021;45.640;11.302;2023-10-31T04:46:48;97324.94;;;13.94;100.00
40315;BME280;26021;45.640;11.302;2023-10-31T04:49:13;97363.41;;;14.18;100.00
40315;BME280;26021;45.640;11.302;2023-10-31T04:51:39;97361.63;;;14.12;100.00
40315;BME280;26021;45.640;11.302;2023-10-31T04:54:04;97311.97;;;14.03;100.00
40315;BME280;26021;45.640;11.302;2023-10-31T04:56:30;97301.56;;;14.06;100.00
40315;BME280;26021;45.640;11.302;2023-10-31T04:58:56;97318.75;;;14.17;100.00
40315;BME280;26021;45.640;11.302;2023-10-31T05:01:21;97315.81;;;14.07;100.00
40315;BME280;26021;45.640;11.302;2023-10-31T05:03:47;97322.38;;;13.99;100.00
40315;BME280;26021;45.640;11.302;2023-10-31T05:06:12;97279.38;;;13.87;100.00
40315;BME280;26021;45.640;11.302;2023-10-31T05:08:38;97328.22;;;14.19;100.00
40315;BME280;26021;45.640;11.302;2023-10-31T05:11:03;97320.03;;;14.14;100.00
40315;BME280;26021;45.640;11.302;2023-10-31T05:13:29;97266.66;;;13.83;100.00
40315;BME280;26021;45.640;11.302;2023-10-31T05:15:55;97235.63;;;13.52;100.00
40315;BME280;26021;45.640;11.302;2023-10-31T05:18:20;97300.50;;;14.07;100.00
40315;BME280;26021;45.640;11.302;2023-10-31T05:20:46;97291.91;;;13.82;100.00
40315;BME280;26021;45.640;11.302;2023-10-31T05:23:12;97277.41;;;13.71;100.00
40315;BME280;26021;45.640;11.302;2023-10-31T05:25:37;97306.34;;;14.04;100.00
40315;BME280;26021;45.640;11.302;2023-10-31T05:28:03;97302.28;;;14.13;100.00
40315;BME280;26021;45.640;11.302;2023-10-31T05:30:29;97276.91;;;13.97;100.00
40315;BME280;26021;45.640;11.302;2023-10-31T05:32:54;97291.63;;;14.18;100.00
40315;BME280;26021;45.640;11.302;2023-10-31T05:35:20;97286.72;;;14.04;100.00
40315;BME280;26021;45.640;11.302;2023-10-31T05:37:46;97289.66;;;14.02;100.00
40315;BME280;26021;45.640;11.302;2023-10-31T05:40:12;97302.28;;;14.13;100.00
40315;BME280;26021;45.640;11.302;2023-10-31T05:42:38;97302.63;;;14.17;100.00
40315;BME280;26021;45.640;11.302;2023-10-31T05:45:04;97298.41;;;14.21;100.00
40315;BME280;26021;45.640;11.302;2023-10-31T05:47:30;97283.22;;;14.03;100.00
40315;BME280;26021;45.640;11.302;2023-10-31T05:49:55;97284.97;;;13.97;100.00
40315;BME280;26021;45.640;11.302;2023-10-31T05:52:20;97278.91;;;13.90;100.00
40315;BME280;26021;45.640;11.302;2023-10-31T05:54:46;97263.88;;;13.66;100.00
40315;BME280;26021;45.640;11.302;2023-10-31T05:57:11;97307.91;;;13.77;100.00
40315;BME280;26021;45.640;11.302;2023-10-31T05:59:37;97160.50;;;12.75;100.00
40315;BME280;26021;45.640;11.302;2023-10-31T06:02:02;97328.81;;;13.86;100.00
40315;BME280;26021;45.640;11.302;2023-10-31T06:04:28;97325.78;;;13.94;100.00
40315;BME280;26021;45.640;11.302;2023-10-31T06:06:53;97324.00;;;14.00;100.00
40315;BME280;26021;45.640;11.302;2023-10-31T06:09:19;97321.69;;;13.92;100.00
40315;BME280;26021;45.640;11.302;2023-10-31T06:11:44;97319.81;;;13.92;100.00
40315;BME280;26021;45.640;11.302;2023-10-31T06:14:10;97328.00;;;13.86;100.00
40315;BME280;26021;45.640;11.302;2023-10-31T06:16:42;97334.31;;;13.91;100.00
40315;BME280;26021;45.640;11.302;2023-10-31T06:19:08;97288.28;;;13.64;100.00
40315;BME280;26021;45.640;11.302;2023-10-31T06:21:33;97351.81;;;14.06;100.00
40315;BME280;26021;45.640;11.302;2023-10-31T06:23:59;97341.41;;;14.09;100.00
40315;BME280;26021;45.640;11.302;2023-10-31T06:26:24;97290.38;;;13.86;100.00
40315;BME280;26021;45.640;11.302;2023-10-31T06:28:50;97336.41;;;14.13;100.00
40315;BME280;26021;45.640;11.302;2023-10-31T06:31:15;97337.31;;;14.30;100.00
40315;BME280;26021;45.640;11.302;2023-10-31T06:33:41;97094.38;;;12.81;100.00
40315;BME280;26021;45.640;11.302;2023-10-31T06:36:07;97343.63;;;14.36;100.00
40315;BME280;26021;45.640;11.302;2023-10-31T06:38:33;97337.28;;;14.42;100.00
40315;BME280;26021;45.640;11.302;2023-10-31T06:40:58;97329.13;;;14.48;100.00
40315;BME280;26021;45.640;11.302;2023-10-31T06:43:24;97284.34;;;14.42;100.00
40315;BME280;26021;45.640;11.302;2023-10-31T06:45:49;97307.03;;;14.75;100.00
40315;BME280;26021;45.640;11.302;2023-10-31T06:48:15;97312.22;;;14.93;100.00
40315;BME280;26021;45.640;11.302;2023-10-31T06:50:40;97307.25;;;15.02;100.00
40315;BME280;26021;45.640;11.302;2023-10-31T06:53:06;97302.59;;;14.97;100.00
40315;BME280;26021;45.640;11.302;2023-10-31T06:55:31;97311.66;;;14.91;100.00
40315;BME280;26021;45.640;11.302;2023-10-31T06:57:57;97334.44;;;15.00;100.00
40315;BME280;26021;45.640;11.302;2023-10-31T07:00:22;97334.34;;;14.83;100.00
40315;BME280;26021;45.640;11.302;2023-10-31T07:02:48;97352.75;;;14.86;100.00
40315;BME280;26021;45.640;11.302;2023-10-31T07:05:13;97285.69;;;14.56;100.00
40315;BME280;26021;45.640;11.302;2023-10-31T07:07:40;97364.09;;;14.88;100.00
40315;BME280;26021;45.640;11.302;2023-10-31T07:10:06;97309.75;;;14.23;100.00
40315;BME280;26021;45.640;11.302;2023-10-31T07:12:32;97288.75;;;14.48;100.00
40315;BME280;26021;45.640;11.302;2023-10-31T07:14:57;97286.16;;;14.53;100.00
40315;BME280;26021;45.640;11.302;2023-10-31T07:17:26;97275.31;;;14.48;100.00
40315;BME280;26021;45.640;11.302;2023-10-31T07:19:51;97213.56;;;14.02;100.00
40315;BME280;26021;45.640;11.302;2023-10-31T07:22:17;97255.09;;;14.46;100.00
40315;BME280;26021;45.640;11.302;2023-10-31T07:24:43;97145.28;;;13.74;100.00
40315;BME280;26021;45.640;11.302;2023-10-31T07:27:11;97244.72;;;14.26;100.00
40315;BME280;26021;45.640;11.302;2023-10-31T07:29:40;97252.72;;;14.49;100.00
40315;BME280;26021;45.640;11.302;2023-10-31T07:32:07;97246.72;;;14.59;100.00
40315;BME280;26021;45.640;11.302;2023-10-31T07:34:33;97238.47;;;14.49;100.00
40315;BME280;26021;45.640;11.302;2023-10-31T07:36:58;97244.91;;;14.48;100.00
40315;BME280;26021;45.640;11.302;2023-10-31T07:39:23;97238.22;;;14.50;100.00
40315;BME280;26021;45.640;11.302;2023-10-31T07:41:49;97249.31;;;14.54;100.00
40315;BME280;26021;45.640;11.302;2023-10-31T07:44:14;97239.38;;;14.54;100.00
40315;BME280;26021;45.640;11.302;2023-10-31T07:46:40;97236.13;;;14.52;100.00
40315;BME280;26021;45.640;11.302;2023-10-31T07:49:05;97236.28;;;14.62;100.00
40315;BME280;26021;45.640;11.302;2023-10-31T07:51:31;97159.31;;;14.61;100.00
40315;BME280;26021;45.640;11.302;2023-10-31T07:53:56;97208.63;;;15.12;100.00
40315;BME280;26021;45.640;11.302;2023-10-31T07:56:23;97205.66;;;15.31;100.00
40315;BME280;26021;45.640;11.302;2023-10-31T07:58:51;97218.13;;;15.53;100.00
40315;BME280;26021;45.640;11.302;2023-10-31T08:01:19;97170.94;;;15.12;100.00
40315;BME280;26021;45.640;11.302;2023-10-31T08:03:46;97223.72;;;15.64;100.00
40315;BME280;26021;45.640;11.302;2023-10-31T08:06:12;97144.19;;;15.44;100.00
40315;BME280;26021;45.640;11.302;2023-10-31T08:08:38;97196.28;;;15.88;100.00
40315;BME280;26021;45.640;11.302;2023-10-31T08:11:03;97185.78;;;16.14;100.00
40315;BME280;26021;45.640;11.302;2023-10-31T08:13:32;97198.91;;;15.62;100.00
40315;BME280;26021;45.640;11.302;2023-10-31T08:15:57;97203.09;;;15.74;100.00
40315;BME280;26021;45.640;11.302;2023-10-31T08:18:23;97150.59;;;15.60;100.00
40315;BME280;26021;45.640;11.302;2023-10-31T08:20:49;97168.94;;;15.80;100.00
40315;BME280;26021;45.640;11.302;2023-10-31T08:23:16;97143.38;;;15.82;100.00
40315;BME280;26021;45.640;11.302;2023-10-31T08:25:43;97193.94;;;16.19;100.00
40315;BME280;26021;45.640;11.302;2023-10-31T08:28:08;97194.03;;;16.29;100.00
40315;BME280;26021;45.640;11.302;2023-10-31T08:30:34;97192.22;;;16.35;100.00
40315;BME280;26021;45.640;11.302;2023-10-31T08:32:59;97180.41;;;16.14;100.00
40315;BME280;26021;45.640;11.302;2023-10-31T08:35:24;97192.91;;;16.47;100.00
40315;BME280;26021;45.640;11.302;2023-10-31T08:37:50;97200.75;;;16.48;100.00
40315;BME280;26021;45.640;11.302;2023-10-31T08:40:15;97207.78;;;16.49;100.00
40315;BME280;26021;45.640;11.302;2023-10-31T08:42:41;97206.34;;;16.42;100.00
40315;BME280;26021;45.640;11.302;2023-10-31T08:45:07;97188.31;;;15.99;100.00
40315;BME280;26021;45.640;11.302;2023-10-31T08:47:33;97209.31;;;15.75;100.00
40315;BME280;26021;45.640;11.302;2023-10-31T08:49:59;97216.50;;;15.69;100.00
40315;BME280;26021;45.640;11.302;2023-10-31T12:54:42;97535.56;;;14.88;100.00
40315;BME280;26021;45.640;11.302;2023-10-31T12:57:08;97537.06;;;14.96;98.60
40315;BME280;26021;45.640;11.302;2023-10-31T12:59:36;97547.69;;;15.14;87.16
40315;BME280;26021;45.640;11.302;2023-10-31T13:02:03;97556.00;;;15.52;85.21
40315;BME280;26021;45.640;11.302;2023-10-31T13:04:30;97496.09;;;15.34;87.69
40315;BME280;26021;45.640;11.302;2023-10-31T13:07:03;97551.22;;;15.66;80.89
40315;BME280;26021;45.640;11.302;2023-10-31T13:09:30;97564.72;;;15.83;84.88
40315;BME280;26021;45.640;11.302;2023-10-31T13:12:03;97573.09;;;15.98;87.50
40315;BME280;26021;45.640;11.302;2023-10-31T13:14:29;97555.22;;;16.09;89.42
40315;BME280;26021;45.640;11.302;2023-10-31T13:16:55;97570.72;;;16.47;82.41
40315;BME280;26021;45.640;11.302;2023-10-31T13:19:20;97582.41;;;16.52;75.20
40315;BME280;26021;45.640;11.302;2023-10-31T13:21:46;97576.09;;;16.64;74.43
40315;BME280;26021;45.640;11.302;2023-10-31T13:24:11;97576.53;;;16.72;79.50
40315;BME280;26021;45.640;11.302;2023-10-31T13:26:37;97576.88;;;16.76;74.63
40315;BME280;26021;45.640;11.302;2023-10-31T13:29:03;97571.19;;;16.94;65.12
40315;BME280;26021;45.640;11.302;2023-10-31T13:31:28;97558.38;;;17.06;66.20
40315;BME280;26021;45.640;11.302;2023-10-31T13:33:53;97564.84;;;17.05;69.99
40315;BME280;26021;45.640;11.302;2023-10-31T13:36:19;97591.03;;;17.22;72.30
40315;BME280;26021;45.640;11.302;2023-10-31T13:38:45;97582.13;;;17.04;74.20
40315;BME280;26021;45.640;11.302;2023-10-31T13:41:12;97597.41;;;16.77;78.56
40315;BME280;26021;45.640;11.302;2023-10-31T13:43:37;97604.41;;;16.44;77.84
40315;BME280;26021;45.640;11.302;2023-10-31T13:46:03;97602.56;;;16.33;81.06
40315;BME280;26021;45.640;11.302;2023-10-31T13:48:30;97614.56;;;16.09;79.72
40315;BME280;26021;45.640;11.302;2023-10-31T13:50:55;97594.56;;;15.93;82.95
40315;BME280;26021;45.640;11.302;2023-10-31T13:53:20;97617.25;;;16.09;87.53
40315;BME280;26021;45.640;11.302;2023-10-31T13:55:49;97615.53;;;16.03;93.27
40315;BME280;26021;45.640;11.302;2023-10-31T13:58:15;97634.34;;;16.14;98.18
40315;BME280;26021;45.640;11.302;2023-10-31T15:32:04;97821.66;;;13.11;100.00
40315;BME280;26021;45.640;11.302;2023-10-31T15:54:58;97885.63;;;12.89;100.00
40315;BME280;26021;45.640;11.302;2023-10-31T15:57:26;97877.94;;;12.92;100.00
40315;BME280;26021;45.640;11.302;2023-10-31T15:59:59;97842.75;;;12.76;100.00
40315;BME280;26021;45.640;11.302;2023-10-31T16:02:27;97898.69;;;13.10;100.00
40315;BME280;26021;45.640;11.302;2023-10-31T16:04:53;97900.31;;;12.80;100.00
40315;BME280;26021;45.640;11.302;2023-10-31T16:07:18;97910.69;;;12.63;100.00
40315;BME280;26021;45.640;11.302;2023-10-31T16:09:45;97915.66;;;12.66;100.00
40315;BME280;26021;45.640;11.302;2023-10-31T16:12:11;97927.19;;;12.60;100.00
40315;BME280;26021;45.640;11.302;2023-10-31T16:14:36;97856.81;;;12.13;100.00
40315;BME280;26021;45.640;11.302;2023-10-31T16:17:02;97942.47;;;12.66;100.00
40315;BME280;26021;45.640;11.302;2023-10-31T16:19:32;97932.34;;;12.75;100.00
40315;BME280;26021;45.640;11.302;2023-10-31T16:45:30;97972.66;;;12.28;100.00
40315;BME280;26021;45.640;11.302;2023-10-31T16:47:56;97979.28;;;12.13;100.00
40315;BME280;26021;45.640;11.302;2023-10-31T16:50:21;97985.06;;;12.09;100.00
40315;BME280;26021;45.640;11.302;2023-10-31T16:52:47;97979.31;;;12.06;100.00
40315;BME280;26021;45.640;11.302;2023-10-31T16:55:12;97989.41;;;12.11;100.00
40315;BME280;26021;45.640;11.302;2023-10-31T16:57:38;97916.19;;;11.70;100.00
40315;BME280;26021;45.640;11.302;2023-10-31T17:00:04;98001.75;;;12.18;100.00
40315;BME280;26021;45.640;11.302;2023-10-31T17:02:29;98007.31;;;12.30;100.00
40315;BME280;26021;45.640;11.302;2023-10-31T17:04:55;98018.25;;;12.08;100.00
40315;BME280;26021;45.640;11.302;2023-10-31T17:07:23;97748.31;;;10.52;100.00
40315;BME280;26021;45.640;11.302;2023-10-31T17:09:49;98021.16;;;12.00;100.00
40315;BME280;26021;45.640;11.302;2023-10-31T17:12:15;97970.59;;;11.71;100.00
40315;BME280;26021;45.640;11.302;2023-10-31T17:14:40;97980.47;;;11.64;100.00
40315;BME280;26021;45.640;11.302;2023-10-31T17:17:06;98041.56;;;12.01;100.00
40315;BME280;26021;45.640;11.302;2023-10-31T17:19:31;98043.22;;;11.89;100.00
40315;BME280;26021;45.640;11.302;2023-10-31T17:21:57;98052.91;;;11.90;100.00
40315;BME280;26021;45.640;11.302;2023-10-31T17:24:23;98025.19;;;11.76;100.00
40315;BME280;26021;45.640;11.302;2023-10-31T17:26:49;98077.19;;;11.89;100.00
40315;BME280;26021;45.640;11.302;2023-10-31T17:29:14;98020.41;;;11.52;100.00
40315;BME280;26021;45.640;11.302;2023-10-31T17:31:40;98037.75;;;11.63;100.00
40315;BME280;26021;45.640;11.302;2023-10-31T17:34:05;98084.59;;;11.87;100.00
40315;BME280;26021;45.640;11.302;2023-10-31T17:36:31;98089.75;;;11.88;100.00
40315;BME280;26021;45.640;11.302;2023-10-31T17:38:56;98094.44;;;11.73;100.00
40315;BME280;26021;45.640;11.302;2023-10-31T17:41:22;98084.94;;;11.64;100.00
40315;BME280;26021;45.640;11.302;2023-10-31T17:43:47;98094.56;;;11.52;100.00
40315;BME280;26021;45.640;11.302;2023-10-31T17:46:13;98114.16;;;11.52;100.00
40315;BME280;26021;45.640;11.302;2023-10-31T17:48:38;98123.81;;;11.46;100.00
40315;BME280;26021;45.640;11.302;2023-10-31T17:51:04;98051.09;;;10.95;100.00
40315;BME280;26021;45.640;11.302;2023-10-31T17:53:29;98119.88;;;11.42;100.00
40315;BME280;26021;45.640;11.302;2023-10-31T17:55:55;98131.84;;;11.46;100.00
40315;BME280;26021;45.640;11.302;2023-10-31T17:58:20;98139.81;;;11.33;100.00
40315;BME280;26021;45.640;11.302;2023-10-31T18:00:46;98148.91;;;11.39;100.00
40315;BME280;26021;45.640;11.302;2023-10-31T18:03:11;98115.03;;;11.18;100.00
40315;BME280;26021;45.640;11.302;2023-10-31T18:05:37;98145.16;;;11.33;100.00
40315;BME280;26021;45.640;11.302;2023-10-31T18:08:03;98113.66;;;10.94;100.00
40315;BME280;26021;45.640;11.302;2023-10-31T18:10:28;98146.81;;;11.34;100.00
40315;BME280;26021;45.640;11.302;2023-10-31T18:12:54;98150.22;;;11.15;100.00
40315;BME280;26021;45.640;11.302;2023-10-31T18:15:19;98145.59;;;11.02;100.00
40315;BME280;26021;45.640;11.302;2023-10-31T18:17:45;98115.41;;;10.80;100.00
40315;BME280;26021;45.640;11.302;2023-10-31T18:20:11;98152.31;;;10.92;100.00
40315;BME280;26021;45.640;11.302;2023-10-31T18:22:36;98158.84;;;10.82;100.00
40315;BME280;26021;45.640;11.302;2023-10-31T18:25:03;98162.78;;;10.87;100.00
40315;BME280;26021;45.640;11.302;2023-10-31T18:27:28;98160.84;;;10.74;100.00
40315;BME280;26021;45.640;11.302;2023-10-31T18:29:54;98169.22;;;10.64;100.00
40315;BME280;26021;45.640;11.302;2023-10-31T18:32:21;98163.81;;;10.58;100.00
40315;BME280;26021;45.640;11.302;2023-10-31T18:34:48;98170.50;;;10.47;100.00
40315;BME280;26021;45.640;11.302;2023-10-31T18:37:14;98166.28;;;10.59;100.00
40315;BME280;26021;45.640;11.302;2023-10-31T18:39:39;98171.69;;;10.66;100.00
40315;BME280;26021;45.640;11.302;2023-10-31T18:42:05;98178.63;;;10.60;100.00
40315;BME280;26021;45.640;11.302;2023-10-31T18:44:31;98185.53;;;10.48;100.00
40315;BME280;26021;45.640;11.302;2023-10-31T18:46:57;98196.03;;;10.49;100.00
40315;BME280;26021;45.640;11.302;2023-10-31T18:49:22;98195.59;;;10.46;100.00